Time;durP1;ratioP1;P1;durP2;ratioP2;P2;SDS_P1;SDS_P2;PMS_P1;PMS_P2;Temp;Humidity;BMP_temperature;BMP_pressure;BME280_temperature;BME280_humidity;BME280_pressure;Samples;Min_cycle;Max_cycle;Signal;HPM_P1;HPM_P2
2023/01/27 00:00:53;;;;;;;63.38;29.35;;;;;;;2.49;100.00;100409.72;5113364;28;20046;-69
2023/01/27 00:03:18;;;;;;;59.63;28.50;;;;;;;2.52;100.00;100415.72;5113600;28;20092;-69
2023/01/27 00:05:45;;;;;;;60.90;28.42;;;;;;;2.48;100.00;100408.84;5113197;28;20020;-69
2023/01/27 00:08:11;;;;;;;59.95;28.13;;;;;;;2.42;100.00;100398.63;5112293;28;20032;-69
2023/01/27 00:10:36;;;;;;;60.22;28.70;;;;;;;2.52;100.00;100410.44;5112799;28;20072;-69
2023/01/27 00:15:46;;;;;;;;;;;;;;;2.43;100.00;100398.50;5113921;28;20432;-69
2023/01/27 00:24:37;;;;;;;63.60;29.42;;;;;;;2.45;100.00;100413.47;5113342;28;20134;-69
2023/01/27 00:27:10;;;;;;;63.20;28.92;;;;;;;2.41;100.00;100411.94;5112745;28;20027;-69
2023/01/27 00:29:36;;;;;;;56.35;27.38;;;;;;;2.41;100.00;100406.66;5109845;28;20032;-69
2023/01/27 00:34:47;;;;;;;59.97;29.25;;;;;;;2.36;100.00;100409.53;5113021;28;20031;-69
2023/01/27 00:37:12;;;;;;;63.22;30.15;;;;;;;2.34;100.00;100409.63;5111970;28;20028;-69
2023/01/27 00:39:38;;;;;;;61.17;29.00;;;;;;;2.34;100.00;100420.19;5113229;28;20035;-68
2023/01/27 00:42:04;;;;;;;60.33;28.88;;;;;;;2.33;100.00;100418.47;5111525;28;20024;-69
2023/01/27 00:44:30;;;;;;;57.35;29.05;;;;;;;2.32;100.00;100419.41;5112886;28;20035;-69
2023/01/27 00:46:55;;;;;;;60.53;30.33;;;;;;;2.25;100.00;100402.16;5112919;27;20380;-69
2023/01/27 00:49:21;;;;;;;60.63;29.58;;;;;;;2.29;100.00;100418.72;5111455;28;20036;-69
2023/01/27 00:51:46;;;;;;;58.10;29.20;;;;;;;2.25;100.00;100409.22;5111611;28;20020;-69
2023/01/27 00:54:13;;;;;;;56.92;27.88;;;;;;;2.31;100.00;100407.13;5111749;28;20034;-69
2023/01/27 00:56:38;;;;;;;58.65;29.50;;;;;;;2.22;100.00;100402.31;5112586;28;20488;-69
2023/01/27 00:59:04;;;;;;;62.15;29.25;;;;;;;2.30;100.00;100425.72;5112626;28;20023;-69
2023/01/27 01:01:30;;;;;;;60.15;29.42;;;;;;;2.27;100.00;100415.31;5112563;28;20408;-69
2023/01/27 01:03:57;;;;;;;55.97;27.42;;;;;;;2.26;100.00;100410.97;5112706;28;20026;-69
2023/01/27 01:06:23;;;;;;;51.60;27.75;;;;;;;2.27;100.00;100404.72;5112002;28;20364;-69
2023/01/27 01:08:50;;;;;;;54.35;27.90;;;;;;;2.26;100.00;100410.97;5111517;28;20030;-69
2023/01/27 01:11:17;;;;;;;54.88;27.17;;;;;;;2.22;100.00;100399.66;5112606;28;20023;-69
2023/01/27 01:13:43;;;;;;;58.03;29.05;;;;;;;2.27;100.00;100400.28;5112736;28;20038;-69
2023/01/27 01:16:14;;;;;;;58.40;26.92;;;;;;;2.24;100.00;100402.22;5112155;28;20422;-69
2023/01/27 01:18:40;;;;;;;52.47;25.88;;;;;;;2.25;100.00;100407.44;5112379;28;20080;-69
2023/01/27 01:21:06;;;;;;;54.45;26.65;;;;;;;2.24;100.00;100415.47;5112399;28;20031;-69
2023/01/27 01:23:32;;;;;;;53.13;26.30;;;;;;;2.22;100.00;100420.84;5112030;28;20041;-69
2023/01/27 01:25:58;;;;;;;56.38;26.80;;;;;;;2.17;100.00;100404.31;5112136;28;20032;-69
2023/01/27 01:28:25;;;;;;;56.15;26.48;;;;;;;2.19;100.00;100412.19;5111108;28;20076;-69
2023/01/27 01:30:50;;;;;;;52.60;25.67;;;;;;;2.21;100.00;100419.13;5111129;28;20118;-69
2023/01/27 01:33:16;;;;;;;49.70;25.52;;;;;;;2.14;100.00;100408.94;5111788;28;20081;-69
2023/01/27 01:35:42;;;;;;;53.75;26.42;;;;;;;2.21;100.00;100408.53;5112052;28;20024;-69
2023/01/27 01:38:08;;;;;;;52.72;25.88;;;;;;;2.17;100.00;100416.72;5111627;28;20055;-69
2023/01/27 01:40:38;;;;;;;47.08;24.45;;;;;;;2.16;100.00;100393.84;5111891;28;20466;-69
2023/01/27 01:43:12;;;;;;;52.13;25.08;;;;;;;2.15;100.00;100394.78;5111977;28;20028;-69
2023/01/27 01:45:51;;;;;;;50.08;24.63;;;;;;;2.14;100.00;100406.28;5111134;28;20031;-69
2023/01/27 01:48:29;;;;;;;46.55;22.92;;;;;;;2.03;100.00;100379.53;5111680;28;20134;-69
2023/01/27 01:51:27;;;;;;;49.33;24.13;;;;;;;2.13;100.00;100391.38;5110786;28;20490;-69
2023/01/27 01:54:01;;;;;;;50.63;25.65;;;;;;;2.14;100.00;100386.00;5105844;28;20035;-69
2023/01/27 01:56:35;;;;;;;43.20;23.08;;;;;;;2.12;100.00;100379.94;5111502;28;20051;-69
2023/01/27 01:59:06;;;;;;;47.92;22.95;;;;;;;2.06;100.00;100379.38;5111805;28;20160;-69
2023/01/27 02:01:32;;;;;;;45.00;23.48;;;;;;;2.03;100.00;100372.47;5110374;28;20024;-69
2023/01/27 02:04:01;;;;;;;47.83;24.63;;;;;;;2.12;100.00;100385.22;5111443;28;20032;-69
2023/01/27 02:06:27;;;;;;;42.63;22.10;;;;;;;2.08;100.00;100378.38;5111727;28;20031;-69
2023/01/27 02:08:53;;;;;;;48.95;24.52;;;;;;;2.06;100.00;100366.16;5111912;28;20043;-69
2023/01/27 02:11:19;;;;;;;46.72;22.77;;;;;;;2.02;100.00;100368.13;5111479;28;20031;-69
2023/01/27 02:13:45;;;;;;;40.75;21.02;;;;;;;2.07;100.00;100374.00;5111706;28;20016;-69
2023/01/27 02:16:12;;;;;;;45.20;22.45;;;;;;;2.07;100.00;100365.25;5111503;28;20463;-69
2023/01/27 02:18:40;;;;;;;41.72;21.70;;;;;;;2.05;100.00;100361.81;5114608;28;20088;-69
2023/01/27 02:21:06;;;;;;;40.88;21.25;;;;;;;2.05;100.00;100351.22;5115642;28;20376;-69
2023/01/27 02:23:45;;;;;;;47.60;23.20;;;;;;;2.07;100.00;100359.94;5115261;28;20034;-69
2023/01/27 02:26:30;;;;;;;44.88;21.92;;;;;;;2.06;100.00;100347.63;5115525;28;20176;-69
2023/01/27 02:28:59;;;;;;;40.67;22.42;;;;;;;2.07;100.00;100344.91;5114332;28;20027;-69
2023/01/27 02:31:24;;;;;;;39.70;20.65;;;;;;;2.01;100.00;100337.31;5115609;28;20536;-69
2023/01/27 02:33:55;;;;;;;43.20;21.55;;;;;;;2.07;100.00;100338.78;5114151;28;20020;-69
2023/01/27 02:36:21;;;;;;;43.08;21.27;;;;;;;2.06;100.00;100343.22;5115520;28;20459;-69
2023/01/27 02:38:52;;;;;;;44.42;22.98;;;;;;;2.03;100.00;100332.78;5114733;28;20063;-69
2023/01/27 02:41:26;;;;;;;46.35;20.83;;;;;;;2.03;100.00;100338.06;5115477;28;20386;-69
2023/01/27 02:43:52;;;;;;;40.03;20.45;;;;;;;2.06;100.00;100334.41;5114607;28;20062;-67
2023/01/27 02:46:18;;;;;;;39.30;20.80;;;;;;;2.07;100.00;100339.63;5114027;28;20046;-67
2023/01/27 02:48:44;;;;;;;43.28;21.88;;;;;;;2.06;100.00;100343.22;5114955;28;20043;-67
2023/01/27 02:51:09;;;;;;;41.72;20.48;;;;;;;2.04;100.00;100339.78;5113664;28;20039;-67
2023/01/27 02:53:35;;;;;;;41.67;20.48;;;;;;;2.03;100.00;100324.84;5113391;28;20027;-67
2023/01/27 02:56:02;;;;;;;39.97;19.98;;;;;;;1.94;100.00;100306.81;5113919;28;20050;-67
2023/01/27 02:58:27;;;;;;;40.45;21.75;;;;;;;2.05;100.00;100323.00;5113540;28;20467;-67
2023/01/27 03:00:52;;;;;;;42.63;21.33;;;;;;;2.09;100.00;100323.66;5114468;28;20106;-66
2023/01/27 03:03:18;;;;;;;38.35;20.27;;;;;;;2.00;100.00;100306.50;5113827;28;20529;-67
2023/01/27 03:05:45;;;;;;;40.38;20.77;;;;;;;2.06;100.00;100319.41;5114411;28;20031;-67
2023/01/27 03:08:10;;;;;;;41.45;20.85;;;;;;;2.11;100.00;100324.47;5113735;28;20027;-66
2023/01/27 03:10:36;;;;;;;38.30;19.42;;;;;;;2.11;100.00;100330.63;5114375;28;20077;-67
2023/01/27 03:13:03;;;;;;;35.90;18.52;;;;;;;2.08;100.00;100320.19;5112735;28;20020;-67
2023/01/27 03:18:14;;;;;;;37.55;19.42;;;;;;;2.12;100.00;100327.03;5114010;28;20281;-66
2023/01/27 03:20:42;;;;;;;36.38;19.27;;;;;;;2.12;100.00;100327.03;5113007;28;20450;-67
2023/01/27 03:23:08;;;;;;;39.63;20.98;;;;;;;2.08;100.00;100320.19;5113916;28;20104;-67
2023/01/27 03:25:34;;;;;;;37.65;20.10;;;;;;;2.15;100.00;100328.63;5113634;28;20525;-67
2023/01/27 03:28:00;;;;;;;39.28;19.30;;;;;;;2.09;100.00;100321.03;5113805;28;20103;-67
2023/01/27 03:30:27;;;;;;;34.97;18.48;;;;;;;2.13;99.92;100320.78;5112812;28;20019;-67
2023/01/27 03:32:53;;;;;;;35.10;19.45;;;;;;;2.14;99.55;100319.00;5112716;28;20511;-69
2023/01/27 03:35:19;;;;;;;38.80;20.85;;;;;;;2.12;99.12;100313.78;5113885;28;20066;-69
2023/01/27 03:48:42;;;;;;;39.22;19.02;;;;;;;2.10;98.19;100310.38;5113657;28;20495;-69
2023/01/27 03:51:09;;;;;;;33.72;18.45;;;;;;;2.10;98.55;100314.81;5113604;28;20031;-69
2023/01/27 03:53:35;;;;;;;34.35;18.50;;;;;;;2.06;98.00;100303.53;5112658;28;20019;-69
2023/01/27 03:56:01;;;;;;;32.60;18.02;;;;;;;2.00;98.50;100289.81;5112131;28;20030;-69
2023/01/27 03:58:30;;;;;;;37.75;20.08;;;;;;;2.04;98.55;100305.41;5113067;28;20036;-69
2023/01/27 04:01:04;;;;;;;36.40;20.77;;;;;;;2.07;98.56;100307.03;5112279;28;20103;-69
2023/01/27 04:09:10;;;;;;;35.83;18.40;;;;;;;2.05;98.70;100296.56;5113158;28;20077;-67
2023/01/27 04:11:54;;;;;;;32.47;18.35;;;;;;;2.01;98.05;100288.84;5113389;28;20046;-67
2023/01/27 04:14:31;;;;;;;36.88;19.23;;;;;;;2.02;98.32;100279.97;5113259;28;20098;-67
2023/01/27 04:17:17;;;;;;;35.72;18.75;;;;;;;2.03;98.45;100292.25;5113430;28;20034;-67
2023/01/27 04:19:43;;;;;;;37.55;18.95;;;;;;;1.97;97.67;100274.94;5113273;28;20046;-67
2023/01/27 04:22:10;;;;;;;32.88;17.55;;;;;;;1.98;98.27;100276.66;5113209;28;20098;-69
2023/01/27 04:24:36;;;;;;;34.00;18.05;;;;;;;2.02;98.00;100278.19;5112915;28;20023;-66
2023/01/27 04:27:05;;;;;;;41.60;19.10;;;;;;;2.08;97.40;100279.66;5112447;28;20530;-67
2023/01/27 04:29:33;;;;;;;34.65;18.98;;;;;;;2.00;97.18;100274.78;5113115;28;20032;-67
2023/01/27 04:31:59;;;;;;;34.85;19.20;;;;;;;1.98;97.41;100268.72;5112040;28;20527;-67
2023/01/27 04:34:26;;;;;;;33.08;18.77;;;;;;;1.93;96.72;100256.66;5112797;28;20022;-67
2023/01/27 04:36:51;;;;;;;30.30;16.98;;;;;;;2.01;96.23;100279.16;5112791;28;20023;-67
2023/01/27 04:39:17;;;;;;;30.27;17.55;;;;;;;2.07;96.08;100283.25;5111674;28;20108;-67
2023/01/27 04:41:44;;;;;;;34.90;18.73;;;;;;;2.03;95.62;100277.25;5112397;28;20466;-67
2023/01/27 04:44:10;;;;;;;33.85;18.73;;;;;;;2.07;94.38;100272.66;5112184;28;20020;-67
2023/01/27 04:46:36;;;;;;;31.02;16.55;;;;;;;2.03;94.67;100269.31;5112544;28;20101;-67
2023/01/27 04:49:02;;;;;;;32.75;18.38;;;;;;;2.05;94.94;100271.88;5112512;28;20047;-67
2023/01/27 04:51:27;;;;;;;34.53;18.73;;;;;;;2.04;95.21;100278.13;5112485;28;20080;-67
2023/01/27 04:53:53;;;;;;;35.05;19.38;;;;;;;2.06;94.46;100274.44;5111808;28;20020;-67
2023/01/27 04:56:29;;;;;;;35.80;18.20;;;;;;;2.07;95.47;100275.31;5112149;28;20033;-67
2023/01/27 04:59:03;;;;;;;33.00;18.30;;;;;;;2.12;93.95;100274.13;5112158;27;20114;-69
2023/01/27 05:01:29;;;;;;;30.55;17.13;;;;;;;2.11;94.61;100277.72;5112692;28;20032;-69
2023/01/27 05:03:55;;;;;;;33.35;19.05;;;;;;;2.11;94.87;100276.84;5111021;28;20106;-68
2023/01/27 05:06:21;;;;;;;32.17;18.05;;;;;;;2.09;95.31;100284.84;5111407;28;20035;-69
2023/01/27 05:08:47;;;;;;;34.42;18.67;;;;;;;2.10;94.88;100283.91;5112111;28;20034;-70
2023/01/27 05:11:12;;;;;;;28.48;16.90;;;;;;;2.11;94.58;100290.94;5111681;28;20019;-69
2023/01/27 05:13:39;;;;;;;35.20;18.17;;;;;;;2.02;94.10;100267.63;5111872;28;20400;-69
2023/01/27 05:16:19;;;;;;;32.05;18.45;;;;;;;2.12;94.63;100286.47;5112517;28;20019;-69
2023/01/27 05:18:47;;;;;;;33.45;18.27;;;;;;;2.11;94.42;100280.34;5111756;28;20111;-69
2023/01/27 05:21:18;;;;;;;34.75;19.25;;;;;;;2.07;94.41;100273.50;5110461;28;20169;-69
2023/01/27 05:23:44;;;;;;;34.70;18.58;;;;;;;1.98;94.36;100262.56;5111945;28;20180;-69
2023/01/27 05:26:20;;;;;;;34.28;19.05;;;;;;;2.12;94.14;100282.06;5111636;28;20526;-69
2023/01/27 05:28:47;;;;;;;35.67;18.70;;;;;;;2.12;94.38;100283.84;5110979;28;20028;-69
2023/01/27 05:31:18;;;;;;;33.53;19.35;;;;;;;2.15;92.89;100281.88;5111606;28;20367;-68
2023/01/27 05:33:45;;;;;;;34.90;18.42;;;;;;;2.13;93.65;100280.28;5111200;28;20019;-68
2023/01/27 05:36:12;;;;;;;33.15;17.45;;;;;;;2.16;92.82;100283.59;5111839;28;20031;-69
2023/01/27 05:38:38;;;;;;;32.63;18.52;;;;;;;2.12;93.09;100274.13;5111081;28;20049;-69
2023/01/27 05:41:06;;;;;;;37.58;19.02;;;;;;;2.12;93.12;100283.84;5111056;28;20372;-68
2023/01/27 05:43:35;;;;;;;40.92;20.60;;;;;;;2.20;92.10;100286.94;5109722;28;20115;-67
2023/01/27 05:46:14;;;;;;;49.65;23.67;;;;;;;2.16;91.75;100280.09;5111530;28;20122;-67
2023/01/27 05:48:42;;;;;;;46.72;23.02;;;;;;;2.15;92.08;100288.97;5111346;28;20489;-67
2023/01/27 05:51:08;;;;;;;36.47;19.67;;;;;;;2.11;92.82;100283.00;5111684;28;20483;-67
2023/01/27 05:53:35;;;;;;;39.13;20.20;;;;;;;2.06;93.33;100271.78;5115413;28;20026;-67
2023/01/27 05:56:01;;;;;;;40.55;21.75;;;;;;;2.02;93.50;100272.91;5114604;28;20067;-67
2023/01/27 05:58:27;;;;;;;33.95;20.42;;;;;;;2.08;93.88;100277.88;5115090;28;20046;-67
2023/01/27 06:00:53;;;;;;;38.67;22.00;;;;;;;2.10;93.18;100296.31;5114731;28;20040;-67
2023/01/27 06:03:19;;;;;;;36.35;18.60;;;;;;;2.08;93.41;100287.59;5115422;28;20028;-67
2023/01/27 06:05:55;;;;;;;37.25;19.88;;;;;;;2.11;93.56;100288.28;5115786;28;20039;-67
2023/01/27 06:08:25;;;;;;;36.08;19.38;;;;;;;2.12;92.79;100289.13;5115380;28;20035;-67
2023/01/27 06:10:51;;;;;;;35.25;19.00;;;;;;;2.09;92.58;100290.16;5114902;28;20621;-66
2023/01/27 06:13:17;;;;;;;33.85;18.88;;;;;;;2.06;92.78;100277.09;5115356;28;20372;-67
2023/01/27 06:15:45;;;;;;;37.13;20.13;;;;;;;2.15;91.92;100286.31;5114638;28;20437;-68
2023/01/27 06:18:11;;;;;;;36.80;20.38;;;;;;;2.12;91.74;100282.06;5115232;28;20345;-67
2023/01/27 06:23:58;;;;;;;33.92;18.33;;;;;;;2.12;91.79;100303.22;5114693;28;20450;-67
2023/01/27 06:26:23;;;;;;;31.27;18.10;;;;;;;2.05;91.85;100288.63;5114952;28;20024;-67
2023/01/27 06:28:49;;;;;;;33.15;18.63;;;;;;;2.12;91.60;100292.63;5114926;28;20023;-67
2023/01/27 06:31:17;;;;;;;30.50;17.60;;;;;;;2.14;90.06;100300.50;5114814;28;20061;-67
2023/01/27 06:33:44;;;;;;;36.35;19.60;;;;;;;2.10;90.46;100291.00;5114677;28;20035;-68
2023/01/27 06:36:13;;;;;;;33.35;19.38;;;;;;;2.12;91.32;100292.63;5113979;28;20031;-68
2023/01/27 06:38:38;;;;;;;35.60;19.08;;;;;;;2.07;90.76;100283.25;5114431;28;20027;-69
2023/01/27 06:41:04;;;;;;;28.90;17.52;;;;;;;2.12;90.77;100297.94;5114317;28;20080;-69
2023/01/27 06:43:30;;;;;;;35.17;18.20;;;;;;;2.12;90.76;100291.78;5112398;28;20012;-68
2023/01/27 06:45:58;;;;;;;34.55;18.15;;;;;;;2.13;90.86;100296.16;5114038;28;20059;-69
2023/01/27 06:48:25;;;;;;;34.53;17.25;;;;;;;2.14;91.30;100300.50;5114497;28;20039;-69
2023/01/27 06:50:55;;;;;;;28.63;16.80;;;;;;;2.14;91.08;100304.00;5111557;28;20093;-69
2023/01/27 06:53:21;;;;;;;32.58;17.17;;;;;;;2.13;91.18;100301.44;5114004;28;20102;-68
2023/01/27 06:59:09;;;;;;;36.47;19.98;;;;;;;2.18;90.51;100304.66;5109194;28;20046;-69
2023/01/27 07:01:34;;;;;;;41.10;20.83;;;;;;;2.19;90.57;100299.28;5114309;28;20043;-69
2023/01/27 07:04:00;;;;;;;36.00;19.35;;;;;;;2.28;88.47;100308.53;5114101;28;20046;-69
2023/01/27 07:06:25;;;;;;;32.65;18.17;;;;;;;2.20;89.12;100289.59;5114014;28;20447;-68
2023/01/27 07:08:51;;;;;;;35.30;18.77;;;;;;;2.23;89.84;100303.47;5114756;28;20489;-69
2023/01/27 07:11:16;;;;;;;34.83;17.98;;;;;;;2.24;90.40;100299.91;5114495;28;20107;-69
2023/01/27 07:13:41;;;;;;;33.83;18.90;;;;;;;2.32;90.04;100299.47;5114867;28;20107;-68
2023/01/27 07:16:07;;;;;;;31.77;17.77;;;;;;;2.23;90.56;100298.19;5114668;28;20019;-69
2023/01/27 07:18:32;;;;;;;35.60;20.48;;;;;;;2.26;90.79;100305.97;5114690;28;20038;-68
2023/01/27 07:20:58;;;;;;;32.47;18.05;;;;;;;2.23;90.55;100298.19;5114747;28;20124;-68
2023/01/27 07:23:23;;;;;;;33.67;18.25;;;;;;;2.31;90.76;100311.88;5114325;28;20103;-68
2023/01/27 07:25:49;;;;;;;30.92;18.63;;;;;;;2.17;90.65;100284.44;5114149;28;20104;-68
2023/01/27 07:28:14;;;;;;;31.90;18.30;;;;;;;2.24;91.13;100309.63;5113574;28;20028;-67
2023/01/27 07:30:40;;;;;;;31.75;17.77;;;;;;;2.24;92.11;100309.63;5114469;28;20016;-68
2023/01/27 07:33:11;;;;;;;31.55;17.38;;;;;;;2.27;92.23;100304.19;5114488;28;20023;-68
2023/01/27 07:35:37;;;;;;;33.80;17.17;;;;;;;2.28;91.77;100301.44;5114500;28;20035;-67
2023/01/27 07:38:05;;;;;;;33.40;16.80;;;;;;;2.32;92.02;100302.13;5113524;28;20057;-67
2023/01/27 07:40:30;;;;;;;32.10;18.30;;;;;;;2.36;90.68;100301.88;5114101;28;20452;-68
2023/01/27 07:43:00;;;;;;;28.65;16.92;;;;;;;2.35;91.21;100297.53;5113108;28;20043;-68
2023/01/27 07:45:26;;;;;;;33.08;16.30;;;;;;;2.41;91.28;100306.09;5114210;28;20031;-68
2023/01/27 07:47:51;;;;;;;32.28;18.48;;;;;;;2.34;91.23;100290.53;5114599;28;20020;-68
2023/01/27 07:50:17;;;;;;;30.45;17.10;;;;;;;2.43;91.33;100297.94;5113856;28;20031;-68
2023/01/27 07:52:42;;;;;;;32.42;18.63;;;;;;;2.48;91.41;100292.41;5113631;28;20359;-68
2023/01/27 07:55:08;;;;;;;30.25;16.85;;;;;;;2.51;90.94;100294.06;5113195;28;20027;-68
2023/01/27 07:57:33;;;;;;;29.25;18.25;;;;;;;2.70;87.83;100286.78;5113379;28;20023;-68
2023/01/27 07:59:59;;;;;;;31.60;17.58;;;;;;;2.73;86.42;100308.63;5112184;28;20047;-68
2023/01/27 08:02:27;;;;;;;28.98;16.80;;;;;;;2.68;87.75;100293.94;5113357;28;20563;-68
2023/01/27 08:04:53;;;;;;;31.58;18.27;;;;;;;2.73;87.43;100297.19;5113530;28;20020;-68
2023/01/27 08:07:20;;;;;;;34.92;18.38;;;;;;;2.75;87.68;100303.25;5113612;28;20080;-68
2023/01/27 08:09:45;;;;;;;29.80;17.13;;;;;;;2.73;87.40;100300.69;5113253;28;20032;-68
2023/01/27 08:12:10;;;;;;;35.85;19.85;;;;;;;2.74;87.96;100291.81;5113315;28;20047;-68
2023/01/27 08:14:36;;;;;;;34.67;18.05;;;;;;;2.82;86.71;100294.03;5113112;28;20073;-68
2023/01/27 08:17:01;;;;;;;34.97;18.83;;;;;;;2.91;84.69;100291.72;5112847;28;20041;-68
2023/01/27 08:19:27;;;;;;;32.35;17.98;;;;;;;2.87;85.85;100294.63;5112115;28;20073;-68
2023/01/27 08:21:52;;;;;;;35.42;18.15;;;;;;;2.99;84.70;100293.91;5113263;28;20059;-68
2023/01/27 08:24:18;;;;;;;33.42;17.67;;;;;;;2.96;84.06;100294.94;5113297;28;20372;-68
2023/01/27 08:26:43;;;;;;;33.38;17.48;;;;;;;2.97;83.85;100294.00;5111696;28;20027;-68
2023/01/27 08:29:08;;;;;;;30.38;16.52;;;;;;;2.95;85.96;100305.63;5113083;28;20034;-68
2023/01/27 08:31:34;;;;;;;34.65;18.23;;;;;;;2.98;85.02;100294.84;5113466;28;20421;-68
2023/01/27 08:33:59;;;;;;;32.22;18.00;;;;;;;2.94;85.21;100288.91;5113350;28;20023;-68
2023/01/27 08:36:25;;;;;;;29.48;17.40;;;;;;;3.02;84.20;100299.03;5113002;28;20084;-68
2023/01/27 08:38:51;;;;;;;30.13;17.02;;;;;;;2.93;85.19;100308.34;5112208;28;20491;-68
2023/01/27 08:41:21;;;;;;;34.13;19.02;;;;;;;2.98;85.12;100298.38;5110671;28;20031;-68
2023/01/27 08:43:47;;;;;;;28.23;16.77;;;;;;;2.97;84.24;100306.41;5112382;28;20019;-68
2023/01/27 08:46:13;;;;;;;31.42;18.20;;;;;;;2.94;84.82;100304.78;5113114;28;20125;-68
2023/01/27 08:48:39;;;;;;;32.50;17.45;;;;;;;2.92;86.25;100298.72;5111725;28;20035;-68
2023/01/27 08:51:06;;;;;;;35.05;19.83;;;;;;;3.17;83.67;100295.50;5113183;28;20063;-68
2023/01/27 08:53:32;;;;;;;33.13;18.55;;;;;;;3.11;84.25;100301.16;5113165;28;20049;-68
2023/01/27 08:56:05;;;;;;;31.80;18.23;;;;;;;3.14;83.50;100309.78;5112566;28;20023;-68
2023/01/27 08:58:32;;;;;;;30.50;17.60;;;;;;;3.11;84.87;100312.63;5112479;28;20559;-68
2023/01/27 09:01:02;;;;;;;36.45;19.88;;;;;;;3.12;82.32;100313.44;5111437;28;20046;-68
2023/01/27 09:03:29;;;;;;;40.28;21.25;;;;;;;3.08;83.19;100309.28;5112815;28;20121;-69
2023/01/27 09:05:54;;;;;;;34.22;19.35;;;;;;;3.10;82.72;100304.75;5112757;28;20081;-68
2023/01/27 09:08:20;;;;;;;39.17;21.38;;;;;;;3.20;82.12;100313.88;5112467;28;20069;-68
2023/01/27 09:10:45;;;;;;;32.63;19.80;;;;;;;3.10;83.28;100318.00;5112627;28;20023;-68
2023/01/27 09:13:13;;;;;;;36.83;20.15;;;;;;;3.12;81.98;100313.44;5112036;28;20024;-68
2023/01/27 09:15:39;;;;;;;33.13;18.27;;;;;;;3.06;83.43;100306.72;5112397;28;20102;-68
2023/01/27 09:18:05;;;;;;;34.08;19.10;;;;;;;3.19;81.91;100312.19;5112357;28;20396;-69
2023/01/27 09:20:33;;;;;;;32.78;18.35;;;;;;;3.17;81.66;100324.66;5112506;28;20115;-69
2023/01/27 09:22:58;;;;;;;34.67;19.73;;;;;;;3.17;82.76;100322.00;5111484;28;20034;-68
2023/01/27 09:25:24;;;;;;;31.08;19.13;;;;;;;3.21;82.10;100320.88;5112241;28;20036;-68
2023/01/27 09:27:56;;;;;;;30.95;19.23;;;;;;;3.25;81.75;100323.25;5111790;28;20028;-68
2023/01/27 09:30:23;;;;;;;30.48;17.55;;;;;;;3.19;81.76;100317.47;5111030;28;20020;-68
2023/01/27 09:32:49;;;;;;;34.38;19.77;;;;;;;3.34;79.61;100329.81;5112312;28;20028;-68
2023/01/27 09:35:14;;;;;;;33.55;18.95;;;;;;;3.37;80.11;100324.34;5112518;28;20074;-68
2023/01/27 09:37:48;;;;;;;38.20;20.60;;;;;;;3.27;80.30;100320.53;5112372;28;20528;-68
2023/01/27 09:40:32;;;;;;;34.00;19.00;;;;;;;3.19;81.69;100315.66;5111565;28;20069;-68
2023/01/27 09:43:18;;;;;;;34.78;19.33;;;;;;;3.21;81.38;100310.28;5111957;28;20054;-68
2023/01/27 09:46:06;;;;;;;31.38;18.23;;;;;;;3.32;80.62;100321.97;5112355;28;20467;-68
2023/01/27 09:48:37;;;;;;;34.83;18.35;;;;;;;3.37;80.78;100329.66;5112327;28;20110;-69
2023/01/27 09:51:18;;;;;;;30.88;17.70;;;;;;;3.46;79.93;100326.47;5112406;28;20036;-68
2023/01/27 09:53:55;;;;;;;35.20;19.45;;;;;;;3.37;80.76;100332.31;5111717;28;20135;-69
2023/01/27 09:56:43;;;;;;;35.80;18.15;;;;;;;3.36;82.10;100326.16;5111789;28;20476;-68
2023/01/27 09:59:27;;;;;;;32.60;18.27;;;;;;;3.40;81.45;100327.69;5091746;28;20093;-68
2023/01/27 10:02:01;;;;;;;33.47;18.00;;;;;;;3.42;82.34;100322.31;5112053;28;20032;-69
2023/01/27 10:04:26;;;;;;;32.83;18.85;;;;;;;3.48;82.75;100320.13;5110948;28;20036;-69
2023/01/27 10:07:23;;;;;;;34.97;19.02;;;;;;;3.44;83.28;100308.00;5112249;28;20034;-70
2023/01/27 10:10:04;;;;;;;30.35;17.80;;;;;;;3.51;83.31;100313.81;5112476;28;20035;-69
2023/01/27 10:12:50;;;;;;;27.00;16.10;;;;;;;3.51;83.09;100311.16;5111729;28;20094;-69
2023/01/27 10:15:38;;;;;;;29.02;16.85;;;;;;;3.58;83.71;100304.53;5110718;28;20073;-69
2023/01/27 10:18:09;;;;;;;28.13;15.50;;;;;;;3.60;82.74;100313.25;5070686;28;20035;-69
2023/01/27 10:20:55;;;;;;;27.58;15.82;;;;;;;3.59;81.37;100296.50;5111690;28;20165;-69
2023/01/27 10:23:35;;;;;;;26.13;15.75;;;;;;;3.62;81.26;100301.63;5111756;28;20031;-69
2023/01/27 10:26:23;;;;;;;25.55;15.55;;;;;;;3.59;81.71;100301.81;5111308;28;20488;-69
2023/01/27 10:29:09;;;;;;;28.08;16.30;;;;;;;3.60;81.83;100305.28;5111456;28;20022;-69
2023/01/27 10:31:57;;;;;;;29.52;16.25;;;;;;;3.72;81.12;100301.91;5111671;28;20092;-69
2023/01/27 10:34:40;;;;;;;30.27;15.77;;;;;;;3.81;79.93;100296.88;5110160;28;20024;-69
2023/01/27 10:37:30;;;;;;;31.80;16.88;;;;;;;3.73;81.75;100293.00;5110686;28;20028;-69
2023/01/27 10:40:16;;;;;;;28.30;16.23;;;;;;;3.74;82.17;100302.69;5114108;28;20023;-69
2023/01/27 10:42:56;;;;;;;25.75;15.38;;;;;;;3.74;83.29;100298.22;5114577;28;20028;-69
2023/01/27 10:45:38;;;;;;;26.63;14.98;;;;;;;3.84;80.56;100293.22;5115253;28;20471;-69
2023/01/27 10:48:10;;;;;;;23.77;14.25;;;;;;;3.83;81.00;100292.34;5115043;28;20103;-68
2023/01/27 10:50:51;;;;;;;23.92;15.05;;;;;;;3.89;80.94;100286.69;5115186;28;20044;-70
2023/01/27 10:53:45;;;;;;;23.60;14.27;;;;;;;3.83;81.88;100295.00;5114045;27;20027;-69
2023/01/27 10:56:24;;;;;;;24.08;15.00;;;;;;;3.88;80.45;100294.72;5114497;28;20034;-69
2023/01/27 10:59:01;;;;;;;23.75;13.93;;;;;;;3.96;80.25;100295.09;5115290;28;20052;-69
2023/01/27 11:01:59;;;;;;;25.20;13.70;;;;;;;3.91;80.59;100297.19;5113550;28;20464;-68
2023/01/27 11:04:37;;;;;;;21.73;13.80;;;;;;;3.87;80.99;100293.03;5085728;28;20042;-69
2023/01/27 11:07:04;;;;;;;24.88;14.25;;;;;;;3.81;81.60;100280.16;5114922;28;20070;-69
2023/01/27 11:09:34;;;;;;;28.73;14.55;;;;;;;3.76;82.00;100277.78;5113238;28;20031;-69
2023/01/27 11:12:04;;;;;;;23.00;13.90;;;;;;;3.70;82.19;100266.66;5114993;28;20106;-69
2023/01/27 11:14:50;;;;;;;23.10;13.65;;;;;;;3.79;82.18;100272.28;5114965;28;20362;-69
2023/01/27 11:17:34;;;;;;;24.13;13.98;;;;;;;3.75;82.56;100259.28;5112908;28;20023;-69
2023/01/27 11:20:11;;;;;;;20.70;13.32;;;;;;;3.80;82.24;100265.16;5114424;28;20016;-70
2023/01/27 11:22:48;;;;;;;22.80;13.02;;;;;;;3.75;82.70;100254.84;5114726;27;20027;-69
2023/01/27 11:25:16;;;;;;;20.10;12.18;;;;;;;3.80;82.20;100257.19;5114705;28;20023;-70
2023/01/27 11:27:44;;;;;;;22.58;13.48;;;;;;;3.80;81.90;100263.38;5114593;28;20027;-69
2023/01/27 11:30:23;;;;;;;20.15;12.10;;;;;;;3.78;82.43;100254.63;5113253;28;20024;-70
2023/01/27 11:32:57;;;;;;;18.38;11.88;;;;;;;3.89;81.50;100252.19;5113411;28;20024;-69
2023/01/27 11:35:23;;;;;;;21.27;12.75;;;;;;;3.99;80.84;100256.00;5114420;28;20076;-68
2023/01/27 11:37:51;;;;;;;21.70;12.60;;;;;;;3.80;82.38;100255.41;5114514;28;20157;-69
2023/01/27 11:40:31;;;;;;;21.77;11.88;;;;;;;3.84;81.88;100248.13;5114527;28;20042;-69
2023/01/27 11:42:57;;;;;;;21.90;12.57;;;;;;;3.74;82.20;100244.34;5114208;28;20031;-68
2023/01/27 11:45:23;;;;;;;20.65;12.75;;;;;;;3.75;82.85;100238.06;5114515;28;20027;-69
2023/01/27 11:47:54;;;;;;;25.48;14.45;;;;;;;3.73;84.46;100229.34;5113318;28;20020;-69
2023/01/27 11:50:23;;;;;;;20.30;12.25;;;;;;;3.71;84.81;100241.88;5114316;28;20027;-69
2023/01/27 11:52:55;;;;;;;19.25;11.50;;;;;;;3.75;84.06;100233.63;5113992;28;20031;-69
2023/01/27 11:55:24;;;;;;;18.00;11.65;;;;;;;3.73;83.98;100235.53;5113764;28;20023;-69
2023/01/27 11:57:59;;;;;;;16.90;10.93;;;;;;;3.65;84.30;100221.03;5113849;28;20380;-69
2023/01/27 12:00:32;;;;;;;18.80;12.13;;;;;;;3.68;84.91;100219.03;5112768;28;20545;-69
2023/01/27 12:03:13;;;;;;;16.45;10.95;;;;;;;3.69;84.77;100236.66;5112607;28;20099;-68